Time;durP1;ratioP1;P1;durP2;ratioP2;P2;SDS_P1;SDS_P2;PMS_P1;PMS_P2;Temp;Humidity;BMP_temperature;BMP_pressure;BME280_temperature;BME280_humidity;BME280_pressure;Samples;Min_cycle;Max_cycle;Signal;HPM_P1;HPM_P2
2022/01/13 00:01:56;;;;;;;33.20;23.37;;;1.00;85.80;;;-0.24;86.64;100216.50;5089164;28;20564;-68
2022/01/13 00:04:25;;;;;;;34.67;23.97;;;1.20;84.60;;;-0.26;86.63;100213.09;5072490;28;20437;-68
2022/01/13 00:06:52;;;;;;;37.47;24.50;;;1.20;84.40;;;-0.41;86.96;100226.34;5073455;28;20430;-68
2022/01/13 00:09:19;;;;;;;33.27;24.13;;;1.10;84.10;;;-0.30;86.33;100223.91;5073647;28;20520;-68
2022/01/13 00:11:48;;;;;;;34.70;24.10;;;1.20;85.00;;;-0.44;86.87;100227.41;5073483;28;20521;-68
2022/01/13 00:14:38;;;;;;;33.60;23.70;;;1.10;84.30;;;-0.24;86.99;100232.44;5072931;28;20511;-68
2022/01/13 00:20:19;;;;;;;35.20;24.20;;;1.30;83.50;;;-0.37;86.85;100230.53;5055619;28;20452;-69
2022/01/13 00:23:37;;;;;;;35.13;25.30;;;1.20;84.20;;;-0.44;86.51;100226.53;5071801;28;20463;-68
2022/01/13 00:25:38;;;;;;;30.70;23.70;;;1.20;83.80;;;-0.08;85.67;100235.91;5072601;28;20468;-68
2022/01/13 00:28:14;;;;;;;35.50;24.80;;;1.40;83.80;;;-0.42;86.59;100227.28;5071992;28;20447;-68
2022/01/13 00:30:41;;;;;;;35.00;24.60;;;1.20;83.40;;;-0.36;86.51;100234.03;5073277;28;20444;-68
2022/01/13 00:33:10;;;;;;;33.17;23.33;;;1.20;84.00;;;-0.31;86.59;100232.81;5073162;28;20536;-68
2022/01/13 00:35:39;;;;;;;39.67;26.43;;;1.30;83.40;;;-0.32;87.17;100233.78;5073580;28;20510;-68
2022/01/13 00:38:05;;;;;;;36.53;25.17;;;1.30;83.80;;;-0.15;86.04;100237.22;5071884;28;20537;-68
2022/01/13 00:40:32;;;;;;;33.77;24.30;;;1.30;83.50;;;-0.30;86.47;100234.53;5088418;28;20524;-68
2022/01/13 00:42:59;;;;;;;35.17;24.40;;;1.30;83.60;;;-0.40;86.50;100243.97;5072997;28;20615;-68
2022/01/13 00:45:26;;;;;;;29.23;22.20;;;1.30;83.10;;;-0.11;86.20;100253.84;5072829;28;20437;-68
2022/01/13 00:47:53;;;;;;;33.13;25.10;;;1.30;83.90;;;-0.14;85.99;100249.56;5073289;28;20441;-68
2022/01/13 00:50:20;;;;;;;36.03;24.30;;;1.30;83.50;;;-0.10;85.75;100256.41;5072860;28;20445;-68
2022/01/13 00:52:48;;;;;;;34.87;24.23;;;1.30;83.60;;;-0.32;86.33;100249.72;5071418;28;20531;-68
2022/01/13 00:55:21;;;;;;;37.53;24.90;;;1.30;83.50;;;-0.21;86.16;100243.75;5071087;28;20473;-68
2022/01/13 00:57:48;;;;;;;31.67;24.00;;;1.40;83.90;;;-0.39;87.04;100251.00;5073450;28;20437;-68
2022/01/13 01:00:18;;;;;;;33.50;24.17;;;1.30;83.70;;;-0.66;88.23;100250.81;5071413;28;20470;-67
2022/01/13 01:02:45;;;;;;;37.10;25.70;;;1.10;84.70;;;-0.81;89.48;100252.56;5088399;28;20464;-68
2022/01/13 01:05:12;;;;;;;34.23;23.67;;;0.90;86.80;;;-0.53;88.25;100256.28;5088655;28;20445;-68
2022/01/13 01:07:39;;;;;;;32.40;23.90;;;1.00;86.50;;;-0.63;88.04;100232.91;5088359;28;20433;-68
2022/01/13 01:10:09;;;;;;;35.37;24.10;;;1.00;86.50;;;-0.44;87.41;100243.34;5073189;28;20456;-68
2022/01/13 01:12:38;;;;;;;30.13;22.40;;;1.10;85.40;;;-0.60;87.79;100238.06;5072873;28;20461;-68
2022/01/13 01:15:08;;;;;;;34.17;23.50;;;1.10;85.30;;;-0.67;88.49;100242.03;5073319;28;20487;-68
2022/01/13 01:17:42;;;;;;;34.70;23.10;;;0.90;86.20;;;-0.82;89.35;100242.91;5072725;28;20445;-67
2022/01/13 01:20:10;;;;;;;35.07;24.10;;;0.90;86.90;;;-0.76;89.18;100238.09;5072757;28;20521;-68
2022/01/13 01:22:54;;;;;;;35.37;24.70;;;0.80;87.00;;;-0.80;89.11;100236.53;5072380;28;20621;-68
2022/01/13 01:25:43;;;;;;;35.30;23.60;;;0.80;87.30;;;-0.70;88.43;100236.84;5071965;28;20756;-68
2022/01/13 01:28:17;;;;;;;34.53;25.23;;;0.80;87.10;;;-0.72;88.57;100236.09;5072759;28;20436;-68
2022/01/13 01:30:47;;;;;;;37.57;24.53;;;0.90;87.00;;;-0.83;88.62;100234.06;5071376;28;20912;-68
2022/01/13 01:33:17;;;;;;;33.83;24.10;;;0.80;86.40;;;-0.75;88.67;100229.19;5072916;28;20452;-67
2022/01/13 01:35:44;;;;;;;35.37;24.10;;;0.90;86.80;;;-0.91;89.07;100231.84;5072954;28;20867;-67
2022/01/13 01:38:11;;;;;;;38.00;26.27;;;0.80;86.50;;;-0.94;89.20;100232.03;5075513;28;20516;-67
2022/01/13 01:40:40;;;;;;;38.63;25.83;;;0.70;87.30;;;-1.09;90.05;100236.38;5076323;28;20445;-67
2022/01/13 01:43:07;;;;;;;38.20;25.97;;;0.60;87.80;;;-1.18;90.01;100244.88;5091236;28;20552;-66
2022/01/13 01:45:43;;;;;;;41.20;26.93;;;0.50;88.30;;;-1.28;90.31;100247.19;5091646;28;20537;-67
2022/01/13 01:48:10;;;;;;;36.37;26.60;;;0.30;88.80;;;-1.42;90.74;100239.97;5074351;28;20437;-67
2022/01/13 01:50:38;;;;;;;43.33;25.87;;;0.20;90.20;;;-1.46;91.47;100222.53;5091791;28;20445;-67
2022/01/13 01:53:07;;;;;;;37.70;25.67;;;0.10;91.00;;;-1.34;91.00;100236.91;5076282;28;20433;-67
2022/01/13 01:55:36;;;;;;;40.93;26.90;;;0.10;90.90;;;-1.65;92.12;100212.06;5092170;28;20924;-67
2022/01/13 01:58:05;;;;;;;40.50;26.40;;;0.00;90.90;;;-1.63;91.81;100236.69;5076004;28;20476;-68
2022/01/13 02:00:31;;;;;;;41.23;27.93;;;-0.10;91.50;;;-1.72;92.22;100238.91;5075834;28;20518;-67
2022/01/13 02:03:00;;;;;;;43.13;28.10;;;-0.20;92.40;;;-1.94;93.25;100222.41;5074554;28;20507;-69
2022/01/13 02:05:27;;;;;;;40.87;29.90;;;-0.30;92.40;;;-1.98;93.50;100234.97;5075409;28;20484;-68
2022/01/13 02:07:54;;;;;;;44.23;27.63;;;-0.40;93.10;;;-2.16;94.53;100235.00;5075498;28;20445;-68
2022/01/13 02:10:21;;;;;;;41.43;28.40;;;-0.50;93.30;;;-2.16;94.22;100213.81;5075610;28;20437;-69
2022/01/13 02:12:52;;;;;;;45.23;29.63;;;-0.60;95.80;;;-1.94;93.42;100230.38;5075859;28;20441;-68
2022/01/13 02:15:31;;;;;;;44.43;27.90;;;-0.50;95.20;;;-2.06;93.83;100222.13;5074446;28;20507;-67
2022/01/13 02:18:02;;;;;;;41.60;28.07;;;-0.50;94.00;;;-2.17;93.74;100224.50;5075561;28;20437;-68
2022/01/13 02:20:49;;;;;;;39.70;26.60;;;-0.50;93.90;;;-2.34;94.61;100215.63;5073818;28;20795;-67
2022/01/13 02:23:30;;;;;;;40.47;26.83;;;-0.70;94.60;;;-2.37;94.47;100218.41;5073771;28;20472;-67
2022/01/13 02:25:58;;;;;;;40.63;27.57;;;-0.80;95.40;;;-2.45;95.14;100218.81;5075128;28;20459;-67
2022/01/13 02:28:25;;;;;;;41.30;27.43;;;-0.80;95.90;;;-2.64;95.68;100204.78;5075405;28;20602;-68
2022/01/13 02:30:52;;;;;;;40.43;26.87;;;-1.00;96.10;;;-2.66;95.69;100220.75;5074823;28;20943;-68
2022/01/13 02:33:19;;;;;;;42.23;27.70;;;-1.00;97.40;;;-2.76;96.67;100215.06;5074070;28;20963;-68
2022/01/13 02:35:48;;;;;;;46.00;28.20;;;-1.20;98.30;;;-2.74;96.94;100222.94;5074303;28;20488;-68
2022/01/13 02:38:15;;;;;;;42.83;26.80;;;-1.20;99.90;;;-2.67;96.89;100213.72;5073517;28;20445;-68
2022/01/13 02:40:42;;;;;;;40.70;27.03;;;-1.10;99.90;;;-2.54;96.76;100213.13;5073435;28;21023;-68
2022/01/13 02:43:10;;;;;;;48.23;29.20;;;-1.00;99.90;;;-2.70;96.99;100198.00;5075440;28;20497;-67
2022/01/13 02:45:51;;;;;;;44.53;28.43;;;-1.00;99.90;;;-2.62;97.69;100217.03;5075439;28;20449;-68
2022/01/13 02:48:30;;;;;;;43.00;28.77;;;-1.00;99.90;;;-2.53;98.18;100206.88;5074153;28;20844;-68
2022/01/13 02:50:59;;;;;;;43.70;29.37;;;-1.00;99.90;;;-2.29;98.28;100205.66;5074375;28;20468;-69
2022/01/13 02:53:27;;;;;;;49.17;30.77;;;-0.80;99.90;;;-2.24;98.26;100197.47;5074736;28;20516;-69
2022/01/13 02:55:56;;;;;;;48.27;28.80;;;-0.60;99.90;;;-2.10;98.30;100196.72;5074676;28;20430;-68
2022/01/13 02:58:24;;;;;;;45.83;29.70;;;-0.50;99.90;;;-1.96;98.09;100203.09;5073276;28;20847;-67
2022/01/13 03:00:51;;;;;;;43.47;27.70;;;-0.40;99.90;;;-1.83;98.24;100204.16;5074810;28;20534;-68
2022/01/13 03:03:19;;;;;;;42.70;29.60;;;-0.30;99.90;;;-1.64;96.86;100198.72;5073128;28;20461;-68
2022/01/13 03:05:46;;;;;;;43.10;29.43;;;-0.10;99.90;;;-1.50;94.46;100203.28;5075512;28;20441;-69
2022/01/13 03:08:15;;;;;;;40.17;26.87;;;0.00;99.90;;;-1.36;93.04;100194.56;5074636;28;20520;-68
2022/01/13 03:10:42;;;;;;;39.03;27.00;;;0.10;94.10;;;-1.26;92.04;100183.41;5074570;28;20494;-69
2022/01/13 03:13:09;;;;;;;41.50;27.13;;;0.20;92.30;;;-1.21;90.53;100189.34;5074744;28;20960;-68
2022/01/13 03:15:36;;;;;;;36.00;25.83;;;0.40;90.10;;;-1.09;89.83;100187.78;5072658;28;20524;-68
2022/01/13 03:18:03;;;;;;;40.73;28.07;;;0.40;88.90;;;-1.11;89.43;100181.72;5072764;28;20775;-68
2022/01/13 03:20:30;;;;;;;34.93;24.90;;;0.50;87.30;;;-0.97;88.58;100192.41;5074659;28;20536;-68
2022/01/13 03:22:57;;;;;;;39.57;26.93;;;0.60;86.50;;;-1.41;87.84;100110.91;5074263;28;21026;-69
2022/01/13 03:25:25;;;;;;;40.30;27.13;;;0.60;85.00;;;-0.99;88.13;100186.28;5074049;28;20440;-67
2022/01/13 03:27:57;;;;;;;35.57;24.80;;;0.60;85.00;;;-0.88;87.23;100197.16;5074025;28;20510;-68
2022/01/13 03:30:25;;;;;;;35.83;24.80;;;0.70;84.30;;;-0.83;87.19;100188.06;5074600;28;20441;-68
2022/01/13 03:32:52;;;;;;;36.13;25.33;;;0.70;84.80;;;-0.64;86.61;100185.19;5073085;28;20437;-69
2022/01/13 03:35:19;;;;;;;36.73;23.90;;;0.80;83.70;;;-0.62;85.76;100183.31;5071927;28;20437;-68
2022/01/13 03:37:46;;;;;;;36.47;24.50;;;0.90;82.70;;;-0.67;86.01;100182.72;5087398;28;20448;-69
2022/01/13 03:40:13;;;;;;;35.17;23.40;;;0.90;82.50;;;-0.62;85.72;100175.34;5072869;28;20433;-67
2022/01/13 03:42:42;;;;;;;29.23;22.03;;;0.90;82.30;;;-0.51;85.40;100175.56;5073783;28;20534;-69
2022/01/13 03:45:10;;;;;;;35.00;25.73;;;1.00;82.30;;;-0.62;86.17;100178.00;5072835;28;20469;-68
2022/01/13 03:47:37;;;;;;;32.03;22.73;;;0.90;82.30;;;-0.64;86.25;100182.53;5073662;28;20468;-68
2022/01/13 03:50:05;;;;;;;30.80;22.80;;;1.00;81.80;;;-0.78;85.96;100162.13;5073712;28;20557;-69
2022/01/13 03:53:48;;;;;;;37.00;25.13;;;1.00;81.80;;;-0.68;85.98;100181.91;5072323;28;20469;-69
2022/01/13 03:57:32;;;;;;;34.17;23.47;;;0.90;82.00;;;-0.44;85.49;100179.59;5073915;28;20434;-69
2022/01/13 04:00:47;;;;;;;34.93;23.20;;;1.00;81.70;;;-0.62;85.76;100181.53;5089258;28;20443;-68
2022/01/13 04:03:16;;;;;;;35.40;23.90;;;1.00;82.20;;;-0.70;86.59;100180.25;5072754;28;20476;-69
2022/01/13 04:06:03;;;;;;;36.10;23.30;;;0.90;82.50;;;-0.69;86.34;100174.84;5074528;28;20555;-69
2022/01/13 04:08:31;;;;;;;35.23;22.63;;;0.90;82.60;;;-0.66;85.96;100180.00;5074022;28;20425;-68
2022/01/13 04:11:19;;;;;;;35.20;24.87;;;1.00;81.60;;;-0.69;85.94;100190.78;5073216;28;20481;-68
2022/01/13 04:13:55;;;;;;;40.50;26.17;;;1.00;81.80;;;-0.41;85.27;100188.31;5073981;28;20601;-68
2022/01/13 04:16:27;;;;;;;37.87;24.13;;;1.10;82.00;;;-0.66;86.55;100195.06;5073390;28;20476;-68
2022/01/13 04:18:59;;;;;;;37.93;25.97;;;1.00;81.90;;;-0.78;86.72;100188.69;5073308;28;20444;-69
2022/01/13 04:21:27;;;;;;;35.47;25.27;;;0.90;82.50;;;-0.68;86.34;100183.69;5073910;28;20491;-68
2022/01/13 04:23:56;;;;;;;34.23;23.93;;;0.90;82.60;;;-0.69;86.88;100196.09;5073202;28;20461;-68
2022/01/13 04:26:28;;;;;;;36.43;25.57;;;0.90;83.50;;;-1.10;86.28;100117.94;5073866;28;20491;-69
2022/01/13 04:29:02;;;;;;;35.20;25.60;;;0.90;82.80;;;-0.63;85.89;100190.44;5072907;28;20445;-69
2022/01/13 04:31:29;;;;;;;34.90;25.00;;;0.90;82.10;;;-0.61;85.99;100204.47;5073055;28;20440;-69
2022/01/13 04:33:58;;;;;;;32.63;24.53;;;0.90;82.60;;;-0.59;86.16;100202.59;5073232;28;20451;-67
2022/01/13 04:36:25;;;;;;;37.50;26.07;;;1.00;82.00;;;-0.46;85.56;100207.16;5073116;28;20437;-68
2022/01/13 04:38:52;;;;;;;36.30;24.50;;;1.10;82.20;;;-0.36;84.82;100208.34;5073068;28;20451;-68
2022/01/13 04:41:29;;;;;;;38.10;26.70;;;1.20;81.00;;;-0.47;85.36;100208.97;5072867;28;20855;-68
2022/01/13 04:43:56;;;;;;;36.83;25.57;;;1.20;80.90;;;-0.26;84.82;100210.44;5073444;28;20471;-68
2022/01/13 04:46:24;;;;;;;34.47;24.47;;;1.20;81.30;;;-0.32;84.33;100209.88;5088250;28;20951;-68
2022/01/13 04:48:51;;;;;;;35.60;25.30;;;1.30;80.50;;;-0.55;84.84;100213.00;5073079;28;20438;-68
2022/01/13 04:51:19;;;;;;;34.23;25.03;;;1.20;80.30;;;-0.47;84.91;100224.06;5073077;28;20430;-68
2022/01/13 04:53:47;;;;;;;36.47;25.53;;;1.20;80.50;;;-0.41;84.36;100220.19;5073013;28;20551;-67
2022/01/13 04:56:26;;;;;;;34.80;25.53;;;1.20;80.40;;;-0.33;84.37;100229.41;5072032;28;20471;-68
2022/01/13 04:58:53;;;;;;;32.97;24.13;;;1.20;80.70;;;-0.41;84.95;100226.34;5070456;28;20475;-68
2022/01/13 05:01:21;;;;;;;33.70;24.70;;;1.20;80.90;;;-0.40;84.39;100196.16;5073229;28;20469;-68
2022/01/13 05:03:47;;;;;;;32.57;23.10;;;1.20;80.60;;;-0.29;84.56;100224.78;5071931;28;20453;-67
2022/01/13 05:06:17;;;;;;;32.80;22.27;;;1.30;80.40;;;-0.34;84.85;100221.53;5072370;28;20985;-68
2022/01/13 05:08:46;;;;;;;32.63;23.50;;;1.20;80.60;;;-0.40;84.25;100190.03;5072083;28;20771;-68
2022/01/13 05:11:13;;;;;;;30.70;20.60;;;1.30;80.40;;;-0.44;84.74;100211.47;5073253;28;20448;-67
2022/01/13 05:13:40;;;;;;;34.27;23.33;;;1.20;80.20;;;-0.45;85.28;100215.06;5075286;28;20436;-67
2022/01/13 05:16:14;;;;;;;34.23;23.30;;;1.20;80.40;;;-0.26;84.17;100207.78;5076623;28;20437;-67
2022/01/13 05:18:48;;;;;;;33.47;22.73;;;1.20;80.60;;;-0.52;85.23;100212.84;5076609;28;20904;-67
2022/01/13 05:21:22;;;;;;;31.17;21.27;;;1.20;80.60;;;-0.58;85.53;100214.91;5077110;28;20523;-67
2022/01/13 05:23:52;;;;;;;34.73;23.27;;;1.10;81.00;;;-0.57;85.42;100211.31;5076355;28;20463;-67
2022/01/13 05:26:21;;;;;;;35.90;24.13;;;1.10;81.50;;;-0.48;85.24;100198.44;5076769;28;20437;-67
2022/01/13 05:28:48;;;;;;;38.23;24.70;;;1.10;81.80;;;-0.42;84.98;100219.31;5074632;28;20976;-68
2022/01/13 05:31:15;;;;;;;36.47;25.03;;;1.10;81.40;;;-0.44;84.93;100222.09;5075365;28;20437;-68
2022/01/13 05:33:42;;;;;;;34.10;23.00;;;1.20;80.30;;;-0.40;84.96;100222.72;5074568;28;20536;-69
2022/01/13 05:36:09;;;;;;;40.47;25.07;;;1.20;80.50;;;-0.59;85.02;100223.81;5076583;28;20520;-68
2022/01/13 05:38:37;;;;;;;34.23;24.07;;;1.20;80.20;;;-0.69;85.94;100216.50;5075419;28;20524;-71
2022/01/13 05:41:05;;;;;;;32.27;22.60;;;1.00;81.10;;;-0.57;85.74;100213.97;5077795;28;20536;-70
2022/01/13 05:43:32;;;;;;;35.00;25.47;;;1.10;81.40;;;-0.52;85.10;100219.00;5080219;28;20460;-70
2022/01/13 05:45:59;;;;;;;30.20;21.50;;;1.10;81.20;;;-0.58;85.57;100216.72;5097611;28;20441;-69
2022/01/13 05:48:26;;;;;;;32.43;22.37;;;1.10;81.00;;;-0.43;85.49;100222.94;5074790;28;20916;-71
2022/01/13 05:50:53;;;;;;;35.43;23.20;;;1.10;81.40;;;-0.27;84.63;100222.00;5075711;28;20842;-71
2022/01/13 05:53:21;;;;;;;34.53;24.30;;;1.20;81.30;;;-0.31;85.39;100224.84;5076172;28;20441;-73
2022/01/13 05:55:48;;;;;;;35.37;24.93;;;1.20;81.80;;;-0.24;85.43;100227.13;5076369;28;20424;-72
2022/01/13 05:58:16;;;;;;;31.30;22.23;;;1.30;82.90;;;-0.27;84.82;100232.63;5074654;28;20529;-75
2022/01/13 06:00:43;;;;;;;30.20;21.63;;;1.30;80.90;;;-0.09;85.54;100238.66;5075160;28;20539;-75
2022/01/13 06:03:11;;;;;;;34.93;23.87;;;1.40;82.80;;;-0.03;84.01;100225.88;5075990;28;20548;-74
2022/01/13 06:05:38;;;;;;;33.03;22.83;;;1.50;81.30;;;-0.14;83.93;100238.94;5075693;28;20477;-75
2022/01/13 06:08:06;;;;;;;37.60;23.43;;;1.40;80.10;;;-0.16;84.35;100240.84;5077323;28;20483;-75
2022/01/13 06:10:33;;;;;;;35.03;24.67;;;1.40;80.50;;;0.01;83.72;100249.59;5076785;28;20441;-74
2022/01/13 06:13:00;;;;;;;31.00;21.90;;;1.40;80.20;;;-0.19;83.97;100230.41;5075670;28;20539;-74
2022/01/13 06:15:28;;;;;;;29.80;22.40;;;1.40;80.20;;;-0.10;84.68;100240.44;5091226;28;20752;-80
2022/01/13 06:17:57;;;;;;;27.93;21.03;;;1.40;80.50;;;0.10;83.02;100225.13;5076653;28;20440;-83
2022/01/13 06:20:24;;;;;;;26.83;20.50;;;1.50;80.10;;;0.22;83.01;100239.47;5076857;28;20433;-81
2022/01/13 06:22:53;;;;;;;29.33;21.50;;;1.60;80.00;;;0.17;82.71;100239.72;5074185;28;21026;-80
2022/01/13 06:25:20;;;;;;;27.47;20.23;;;1.60;79.50;;;0.19;82.50;100243.16;5077229;28;20433;-78
2022/01/13 06:27:48;;;;;;;30.63;21.80;;;1.70;79.50;;;0.58;85.22;100245.25;5076949;28;20943;-79
2022/01/13 06:30:16;;;;;;;29.00;20.83;;;1.80;83.10;;;0.33;81.69;100262.72;5076898;28;20980;-80
2022/01/13 06:32:46;;;;;;;32.00;22.10;;;1.90;78.10;;;0.66;81.94;100249.13;5076326;28;20441;-79
2022/01/13 06:35:14;;;;;;;32.53;22.77;;;2.00;79.20;;;0.54;80.70;100234.81;5091191;28;20900;-80
2022/01/13 06:37:42;;;;;;;29.43;20.43;;;2.10;77.50;;;0.38;80.16;100250.84;5075585;28;20441;-79
2022/01/13 06:40:11;;;;;;;29.60;20.50;;;2.00;76.50;;;0.44;80.52;100254.06;5075413;28;20442;-79
2022/01/13 06:42:39;;;;;;;27.40;20.03;;;2.00;77.00;;;0.46;81.06;100261.03;5075573;28;20528;-76
2022/01/13 06:45:10;;;;;;;30.73;21.73;;;2.00;77.50;;;0.19;81.08;100252.94;5075849;28;20446;-77
2022/01/13 06:47:38;;;;;;;33.60;23.63;;;1.90;76.90;;;0.25;81.74;100258.75;5074688;28;20433;-75
2022/01/13 06:50:07;;;;;;;27.03;20.37;;;1.80;77.70;;;0.21;81.17;100264.34;5078106;28;20437;-72
2022/01/13 06:52:34;;;;;;;29.50;20.70;;;1.80;77.40;;;0.36;81.22;100271.38;5078159;28;20525;-71
2022/01/13 06:55:01;;;;;;;29.60;21.60;;;1.80;77.80;;;0.23;81.51;100271.28;5076904;28;20506;-70
2022/01/13 06:57:30;;;;;;;28.97;21.83;;;1.70;77.50;;;0.23;81.81;100268.63;5076500;28;20528;-70
2022/01/13 06:59:59;;;;;;;30.27;20.93;;;1.70;78.00;;;0.05;81.47;100253.78;5074570;28;20465;-70
2022/01/13 07:02:29;;;;;;;28.67;20.07;;;1.60;77.80;;;0.27;81.68;100280.78;5073977;28;20433;-70
2022/01/13 07:04:56;;;;;;;33.23;22.53;;;1.70;78.00;;;0.23;81.55;100268.63;5071206;28;20912;-70
2022/01/13 07:07:25;;;;;;;31.33;20.90;;;1.70;77.90;;;0.22;81.63;100269.53;5058919;28;20490;-71
2022/01/13 07:09:52;;;;;;;27.87;20.00;;;1.70;77.80;;;0.40;83.91;100266.72;5053428;28;20541;-70
2022/01/13 07:12:19;;;;;;;25.33;18.77;;;1.80;81.70;;;0.13;82.62;100276.28;5034174;28;20470;-69
2022/01/13 07:14:46;;;;;;;23.70;18.00;;;1.70;78.80;;;0.32;82.28;100282.28;5069106;28;20489;-70
2022/01/13 07:17:13;;;;;;;25.30;18.67;;;1.70;79.10;;;0.23;81.97;100284.59;5052144;28;20985;-69
2022/01/13 07:19:40;;;;;;;25.03;18.10;;;1.70;78.10;;;0.03;82.73;100291.09;5045587;28;20486;-70
2022/01/13 07:22:09;;;;;;;28.20;19.10;;;1.60;78.10;;;0.26;82.36;100294.16;5033540;28;20976;-70
2022/01/13 07:24:38;;;;;;;27.70;20.07;;;1.70;78.80;;;0.31;81.47;100305.38;5065435;28;20472;-69
2022/01/13 07:27:05;;;;;;;27.43;19.50;;;1.80;78.00;;;0.27;81.79;100299.41;5074515;28;20491;-71
2022/01/13 07:29:32;;;;;;;30.83;21.13;;;1.80;77.80;;;0.11;81.77;100295.94;5074111;28;20426;-77
2022/01/13 07:31:59;;;;;;;28.57;19.47;;;1.70;77.90;;;0.12;82.38;100302.97;5074056;28;20467;-77
2022/01/13 07:34:26;;;;;;;29.53;21.10;;;1.60;78.30;;;0.30;81.91;100305.47;5073295;28;20422;-77
2022/01/13 07:36:53;;;;;;;27.50;20.40;;;1.70;78.40;;;0.32;82.13;100301.78;5055970;28;20442;-78
2022/01/13 07:39:20;;;;;;;27.00;20.50;;;1.80;78.30;;;0.27;81.93;100304.72;5074015;28;20445;-78
2022/01/13 07:41:48;;;;;;;28.00;19.47;;;1.80;78.00;;;0.20;81.81;100308.66;5056150;28;20629;-78
2022/01/13 07:44:17;;;;;;;26.27;19.50;;;1.70;77.60;;;0.01;82.56;100300.09;5074078;28;20981;-78
2022/01/13 07:46:45;;;;;;;28.20;19.40;;;1.70;77.80;;;0.18;81.74;100286.66;5056720;28;20790;-77
2022/01/13 07:49:12;;;;;;;29.70;19.20;;;1.70;77.90;;;0.16;82.84;100293.84;5074453;28;20476;-78
2022/01/13 07:51:39;;;;;;;23.53;17.40;;;1.80;78.60;;;0.38;83.60;100293.41;5075565;28;20551;-78
2022/01/13 07:54:06;;;;;;;30.13;19.73;;;1.80;79.80;;;0.32;81.87;100304.44;5058210;28;20437;-80
2022/01/13 07:56:33;;;;;;;32.00;23.03;;;1.90;78.30;;;0.28;82.84;100301.09;5077596;28;20437;-80
2022/01/13 07:59:01;;;;;;;27.83;20.40;;;1.80;78.70;;;0.54;81.67;100303.09;5090073;28;20446;-74
2022/01/13 08:01:28;;;;;;;28.30;19.50;;;2.00;78.60;;;0.50;80.89;100275.84;5066569;28;20464;-73
2022/01/13 08:03:55;;;;;;;26.77;18.70;;;2.10;77.90;;;0.56;81.08;100302.06;5073553;28;20937;-73
2022/01/13 08:06:22;;;;;;;28.13;20.37;;;2.00;77.70;;;0.66;81.20;100293.50;5074239;28;20893;-75
2022/01/13 08:08:49;;;;;;;28.60;19.87;;;2.10;77.80;;;0.65;81.73;100299.78;5073739;28;20465;-76
2022/01/13 08:11:16;;;;;;;25.53;19.27;;;2.10;78.30;;;0.33;81.90;100297.28;5074061;28;20525;-75
2022/01/13 08:13:44;;;;;;;25.33;17.67;;;2.00;77.30;;;0.47;81.16;100280.50;5074147;28;20434;-75
2022/01/13 08:16:16;;;;;;;28.10;19.57;;;2.00;77.70;;;0.72;80.24;100294.94;5055705;28;20920;-75
2022/01/13 08:21:27;;;;;;;28.70;19.57;;;2.30;78.00;;;0.74;80.04;100299.22;5072465;28;20480;-76
2022/01/13 08:23:54;;;;;;;30.80;21.23;;;2.30;77.00;;;0.61;80.44;100308.91;5072480;28;20492;-76
2022/01/13 08:26:22;;;;;;;28.17;20.50;;;2.20;76.80;;;0.61;80.69;100300.94;5056323;28;20473;-75
2022/01/13 08:28:49;;;;;;;28.10;20.43;;;2.10;76.90;;;0.59;81.06;100284.22;5074593;28;20529;-74
2022/01/13 08:31:17;;;;;;;32.23;23.70;;;2.20;77.40;;;-0.16;80.56;100231.03;5072560;28;20536;-75
2022/01/13 08:33:44;;;;;;;30.53;21.80;;;2.00;76.50;;;0.27;80.79;100301.19;5056341;28;20461;-76
2022/01/13 08:36:11;;;;;;;39.87;25.40;;;1.90;76.60;;;0.54;81.23;100309.31;5072409;28;20544;-75
2022/01/13 08:38:38;;;;;;;30.50;21.20;;;2.00;77.40;;;0.55;79.86;100311.00;5073322;28;20440;-74
2022/01/13 08:41:05;;;;;;;25.50;19.13;;;2.10;76.30;;;0.67;79.65;100316.50;5073320;28;20928;-75
2022/01/13 08:43:33;;;;;;;27.30;20.10;;;2.10;76.40;;;0.70;79.62;100319.00;5054881;28;20883;-76
2022/01/13 08:46:03;;;;;;;26.03;19.73;;;2.20;76.40;;;0.80;78.94;100317.44;5074004;28;20516;-75
2022/01/13 08:48:33;;;;;;;25.80;19.80;;;2.30;76.10;;;0.65;79.64;100310.41;5076788;28;20908;-74
2022/01/13 08:51:00;;;;;;;27.77;19.53;;;2.20;76.00;;;0.80;79.67;100311.28;5077225;28;20906;-74
2022/01/13 08:53:27;;;;;;;27.27;20.47;;;2.20;76.30;;;0.67;79.28;100303.19;5076125;28;20473;-74
2022/01/13 08:55:55;;;;;;;26.50;20.10;;;2.30;75.90;;;0.91;79.08;100299.94;5075501;28;20479;-75
2022/01/13 08:58:22;;;;;;;26.03;20.23;;;2.30;76.10;;;1.07;78.33;100295.34;5076730;28;20939;-75
2022/01/13 09:00:50;;;;;;;28.00;19.23;;;2.50;75.70;;;1.27;77.89;100299.41;5075499;28;20472;-76
2022/01/13 09:03:17;;;;;;;20.93;15.87;;;2.60;75.30;;;1.15;77.59;100297.53;5076676;28;20476;-77
2022/01/13 09:05:46;;;;;;;27.23;17.67;;;2.70;74.70;;;0.97;78.10;100289.78;5059213;28;20993;-74
2022/01/13 09:08:13;;;;;;;23.53;17.73;;;2.50;74.60;;;1.06;78.15;100290.13;5076547;28;20925;-75
2022/01/13 09:10:43;;;;;;;28.00;20.20;;;2.60;74.90;;;0.84;77.88;100289.72;5058700;28;20476;-75
2022/01/13 09:13:14;;;;;;;33.57;21.00;;;2.50;74.50;;;1.01;78.31;100293.09;5058888;28;20441;-75
2022/01/13 09:15:45;;;;;;;31.17;22.70;;;2.50;75.00;;;1.06;77.58;100280.34;5076307;28;20455;-75
2022/01/13 09:18:16;;;;;;;30.07;21.33;;;2.50;74.50;;;1.37;76.26;100286.34;5076967;28;20516;-76
2022/01/13 09:20:46;;;;;;;28.87;21.00;;;2.70;74.20;;;1.29;76.83;100288.66;5081226;28;20448;-76
2022/01/13 09:23:13;;;;;;;20.17;14.57;;;2.80;74.00;;;1.16;76.70;100295.75;5077025;28;20975;-77
2022/01/13 09:25:40;;;;;;;25.73;19.30;;;2.70;73.50;;;1.37;76.06;100290.84;5059407;28;21006;-73
2022/01/13 09:28:09;;;;;;;30.20;19.77;;;2.80;73.60;;;1.40;76.44;100296.78;5078106;28;20983;-75
2022/01/13 09:30:37;;;;;;;28.90;20.90;;;2.80;73.60;;;1.54;76.11;100292.38;5089707;28;20488;-73
2022/01/13 09:33:04;;;;;;;29.40;21.47;;;2.90;73.60;;;1.24;76.22;100306.72;5096133;28;20437;-72
2022/01/13 09:35:32;;;;;;;26.47;20.63;;;2.80;73.30;;;1.29;76.32;100303.78;5068283;28;20533;-74
2022/01/13 09:38:00;;;;;;;27.27;20.60;;;2.80;73.10;;;1.22;76.21;100313.97;5076726;28;20623;-74
2022/01/13 09:40:28;;;;;;;22.07;17.30;;;2.80;72.90;;;1.49;75.66;100302.47;5076229;28;20529;-75
2022/01/13 09:42:55;;;;;;;24.97;19.37;;;2.80;73.10;;;1.06;76.32;100280.34;5058727;28;20433;-74
2022/01/13 09:45:23;;;;;;;24.93;18.60;;;2.80;73.00;;;1.43;76.31;100317.06;5076009;28;20515;-75
2022/01/13 09:47:53;;;;;;;23.60;17.93;;;2.80;73.30;;;1.55;75.44;100320.72;5058207;28;20434;-75
2022/01/13 09:50:21;;;;;;;19.43;15.53;;;3.00;72.80;;;1.66;73.95;100286.22;5057973;28;20540;-74
2022/01/13 09:52:49;;;;;;;18.87;15.57;;;3.20;72.20;;;1.10;75.08;100251.72;5076379;28;20470;-73
2022/01/13 09:55:19;;;;;;;21.10;15.70;;;3.00;72.00;;;1.25;76.41;100308.44;5052188;28;20845;-73
2022/01/13 09:57:49;;;;;;;22.60;15.07;;;2.90;72.50;;;1.66;74.92;100312.88;5053995;28;20522;-81
2022/01/13 10:00:21;;;;;;;19.43;16.63;;;3.00;72.20;;;1.44;75.32;100323.22;5055245;28;20988;-80
2022/01/13 10:02:49;;;;;;;20.47;16.33;;;3.00;72.10;;;1.55;74.79;100318.91;5056431;28;20429;-78
2022/01/13 10:05:18;;;;;;;24.53;18.23;;;3.00;71.70;;;1.62;73.82;100307.84;5037755;28;20557;-79
2022/01/13 10:07:50;;;;;;;28.10;19.33;;;3.10;71.50;;;1.62;74.01;100315.84;5055387;28;20443;-80
2022/01/13 10:10:24;;;;;;;28.00;19.20;;;3.20;71.10;;;1.59;74.92;100316.88;5056372;28;20431;-81
2022/01/13 10:13:04;;;;;;;32.13;20.00;;;3.10;71.50;;;1.88;73.59;100322.09;5055545;28;20448;-80
2022/01/13 10:18:42;;;;;;;25.77;18.97;;;3.50;70.60;;;2.21;71.79;100318.13;5055687;28;20440;-80
2022/01/13 10:21:11;;;;;;;25.80;19.10;;;3.60;69.80;;;1.89;73.25;100329.13;5055599;28;20456;-79
2022/01/13 10:23:38;;;;;;;23.30;18.03;;;3.40;69.90;;;1.55;74.12;100331.38;5054295;28;20478;-80
2022/01/13 10:26:14;;;;;;;24.90;16.57;;;3.20;70.20;;;1.41;74.43;100341.13;5054128;28;20508;-78
2022/01/13 10:28:51;;;;;;;25.20;17.90;;;3.00;70.50;;;1.85;72.69;100330.31;5055527;28;20893;-78